Time;durP1;ratioP1;P1;durP2;ratioP2;P2;SDS_P1;SDS_P2;PMS_P1;PMS_P2;Temp;Humidity;BMP_temperature;BMP_pressure;BME280_temperature;BME280_humidity;BME280_pressure;Samples;Min_cycle;Max_cycle;Signal;HPM_P1;HPM_P2
2021/12/20 00:00:21;;;;;;;3.80;2.97;;;;;;;;;;5037740;28;20029;-49
2021/12/20 00:02:53;;;;;;;4.35;3.28;;;;;;;;;;5035040;28;20061;-50
2021/12/20 00:05:20;;;;;;;2.90;2.17;;;;;;;;;;5038772;28;20582;-50
2021/12/20 00:07:46;;;;;;;3.55;3.15;;;;;;;;;;5036054;28;20106;-51
2021/12/20 00:10:11;;;;;;;3.33;2.75;;;;;;;;;;5034814;28;20447;-51
2021/12/20 00:12:37;;;;;;;3.10;2.75;;;;;;;;;;5037589;28;20558;-52
2021/12/20 00:15:03;;;;;;;3.63;2.55;;;;;;;;;;5035876;28;20044;-51
2021/12/20 00:17:29;;;;;;;3.92;2.85;;;;;;;;;;5036154;28;20061;-49
2021/12/20 00:19:54;;;;;;;3.50;3.15;;;;;;;;;;5034458;28;20064;-50
2021/12/20 00:22:19;;;;;;;3.05;2.58;;;;;;;;;;5033611;28;20117;-48
2021/12/20 00:24:45;;;;;;;3.90;3.20;;;;;;;;;;5035638;28;20030;-51
2021/12/20 00:27:12;;;;;;;4.20;3.03;;;;;;;;;;5036879;28;20036;-47
2021/12/20 00:29:37;;;;;;;8.55;3.03;;;;;;;;;;5034208;28;20112;-49
2021/12/20 00:32:04;;;;;;;3.13;2.63;;;;;;;;;;5040377;28;20115;-49
2021/12/20 00:34:29;;;;;;;4.43;3.00;;;;;;;;;;5036333;28;20041;-50
2021/12/20 00:37:03;;;;;;;3.72;2.60;;;;;;;;;;5036022;28;20025;-51
2021/12/20 00:42:13;;;;;;;3.95;3.55;;;;;;;;;;5035921;28;20033;-49
2021/12/20 00:44:39;;;;;;;3.00;2.70;;;;;;;;;;5036239;28;20048;-50
2021/12/20 00:47:04;;;;;;;3.03;2.60;;;;;;;;;;5035010;28;20135;-49
2021/12/20 00:49:29;;;;;;;3.55;3.25;;;;;;;;;;5034502;28;20068;-49
2021/12/20 00:51:55;;;;;;;3.92;2.67;;;;;;;;;;5037472;28;20079;-50
2021/12/20 00:54:20;;;;;;;3.60;2.53;;;;;;;;;;5039010;28;20043;-51
2021/12/20 00:56:46;;;;;;;3.13;2.75;;;;;;;;;;5034064;28;20072;-50
2021/12/20 00:59:11;;;;;;;3.88;3.03;;;;;;;;;;5071645;28;20060;-48
2021/12/20 01:01:36;;;;;;;4.75;3.92;;;;;;;;;;5037696;28;20119;-49
2021/12/20 01:04:03;;;;;;;3.35;2.88;;;;;;;;;;5036552;28;20458;-49
2021/12/20 01:06:28;;;;;;;3.42;2.97;;;;;;;;;;5036804;28;20033;-50
2021/12/20 01:08:54;;;;;;;2.92;2.63;;;;;;;;;;5039050;28;20029;-51
2021/12/20 01:11:24;;;;;;;3.50;2.72;;;;;;;;;;5035107;28;20039;-50
2021/12/20 01:13:50;;;;;;;3.60;2.80;;;;;;;;;;5032047;28;20466;-51
2021/12/20 01:16:15;;;;;;;3.78;3.22;;;;;;;;;;5034651;28;20108;-51
2021/12/20 01:18:41;;;;;;;3.38;2.72;;;;;;;;;;5033634;28;20110;-50
2021/12/20 01:21:07;;;;;;;4.10;3.38;;;;;;;;;;5034405;28;20499;-52
2021/12/20 01:23:34;;;;;;;3.10;2.72;;;;;;;;;;5034940;28;20033;-50
2021/12/20 01:26:00;;;;;;;5.25;2.97;;;;;;;;;;5034489;28;20595;-51
2021/12/20 01:28:25;;;;;;;3.15;2.78;;;;;;;;;;5037077;28;20104;-50
2021/12/20 01:30:51;;;;;;;5.25;2.97;;;;;;;;;;5032459;28;20116;-50
2021/12/20 01:33:16;;;;;;;3.42;2.72;;;;;;;;;;5035244;28;20044;-50
2021/12/20 01:35:41;;;;;;;3.55;2.53;;;;;;;;;;5033765;28;20860;-51
2021/12/20 01:38:07;;;;;;;3.40;2.88;;;;;;;;;;5034206;28;20045;-47
2021/12/20 01:40:35;;;;;;;3.53;2.92;;;;;;;;;;5033940;28;20036;-49
2021/12/20 01:43:00;;;;;;;4.45;2.72;;;;;;;;;;5034941;28;20463;-46
2021/12/20 01:45:28;;;;;;;3.70;3.03;;;;;;;;;;5032312;28;20068;-48
2021/12/20 01:48:08;;;;;;;3.20;2.50;;;;;;;;;;5036394;28;20022;-50
2021/12/20 01:53:09;;;;;;;4.15;2.80;;;;;;;;;;5035378;28;20095;-49
2021/12/20 01:55:34;;;;;;;3.03;2.58;;;;;;;;;;5036498;28;20033;-47
2021/12/20 01:58:00;;;;;;;5.00;3.33;;;;;;;;;;5033768;28;20043;-51
2021/12/20 02:00:28;;;;;;;3.63;3.30;;;;;;;;;;5036615;28;20037;-50
2021/12/20 02:02:59;;;;;;;3.05;2.63;;;;;;;;;;5035597;28;20025;-50
2021/12/20 02:05:48;;;;;;;3.42;3.13;;;;;;;;;;5069108;28;20044;-47
2021/12/20 02:08:29;;;;;;;3.60;2.72;;;;;;;;;;5037559;28;20068;-47
2021/12/20 02:10:57;;;;;;;3.00;2.70;;;;;;;;;;5035489;28;20037;-48
2021/12/20 02:13:25;;;;;;;5.10;3.85;;;;;;;;;;5041606;28;20117;-48
2021/12/20 02:15:51;;;;;;;3.20;2.85;;;;;;;;;;5031642;28;20099;-49
2021/12/20 02:18:16;;;;;;;3.25;2.63;;;;;;;;;;5034106;28;20029;-47
2021/12/20 02:20:42;;;;;;;3.83;3.33;;;;;;;;;;5037184;28;20025;-52
2021/12/20 02:23:08;;;;;;;6.75;4.00;;;;;;;;;;5033461;28;20056;-49
2021/12/20 02:25:34;;;;;;;3.65;3.20;;;;;;;;;;5032888;28;20386;-48
2021/12/20 02:28:09;;;;;;;6.10;4.13;;;;;;;;;;5036777;28;20029;-48
2021/12/20 02:30:47;;;;;;;4.43;4.03;;;;;;;;;;5033008;28;20033;-48
2021/12/20 02:38:43;;;;;;;3.92;3.53;;;;;;;;;;5034050;28;20059;-46
2021/12/20 02:41:20;;;;;;;3.63;3.13;;;;;;;;;;5034593;28;20230;-46
2021/12/20 02:43:54;;;;;;;4.28;3.42;;;;;;;;;;5032185;28;20040;-47
2021/12/20 02:47:08;;;;;;;5.38;4.28;;;;;;;;;;5037266;28;20048;-49
2021/12/20 02:49:15;;;;;;;3.35;2.80;;;;;;;;;;5031538;28;20056;-48
2021/12/20 02:51:41;;;;;;;5.07;4.00;;;;;;;;;;5037307;28;20044;-47
2021/12/20 02:54:09;;;;;;;4.38;3.42;;;;;;;;;;5036737;28;20089;-49
2021/12/20 02:56:35;;;;;;;4.65;3.78;;;;;;;;;;5041512;28;20417;-47
2021/12/20 02:59:01;;;;;;;6.55;4.13;;;;;;;;;;5037426;28;20025;-46
2021/12/20 03:01:27;;;;;;;5.57;4.32;;;;;;;;;;5040037;28;20029;-49
2021/12/20 03:03:54;;;;;;;4.63;4.13;;;;;;;;;;5038316;28;20112;-47
2021/12/20 03:06:34;;;;;;;5.35;4.13;;;;;;;;;;5036611;28;20029;-47
2021/12/20 03:09:00;;;;;;;4.70;3.63;;;;;;;;;;5038786;28;20124;-48
2021/12/20 03:11:27;;;;;;;8.27;5.63;;;;;;;;;;5039890;28;20063;-46
2021/12/20 03:14:05;;;;;;;6.43;4.25;;;;;;;;;;5040599;28;20025;-47
2021/12/20 03:16:31;;;;;;;5.90;4.95;;;;;;;;;;5039501;28;20037;-48
2021/12/20 03:18:56;;;;;;;6.20;5.13;;;;;;;;;;5034834;28;20045;-47
2021/12/20 03:21:21;;;;;;;3.67;3.28;;;;;;;;;;5036248;28;20021;-47
2021/12/20 03:23:47;;;;;;;8.70;4.70;;;;;;;;;;5040044;28;20044;-47
2021/12/20 03:26:12;;;;;;;5.97;4.68;;;;;;;;;;5037929;28;20090;-48
2021/12/20 03:28:38;;;;;;;10.13;4.45;;;;;;;;;;5038401;28;20120;-47
2021/12/20 03:31:03;;;;;;;7.22;4.78;;;;;;;;;;5037856;28;20041;-48
2021/12/20 03:33:28;;;;;;;7.40;5.43;;;;;;;;;;5039802;28;20037;-48
2021/12/20 03:35:54;;;;;;;7.18;5.05;;;;;;;;;;5040680;28;20083;-50
2021/12/20 03:38:20;;;;;;;5.65;4.22;;;;;;;;;;5035490;28;20407;-48
2021/12/20 03:40:45;;;;;;;5.57;5.03;;;;;;;;;;5037224;28;20435;-48
2021/12/20 03:43:12;;;;;;;7.50;5.93;;;;;;;;;;5037452;28;20060;-47
2021/12/20 03:45:38;;;;;;;6.22;4.97;;;;;;;;;;5037525;28;20032;-47
2021/12/20 03:48:03;;;;;;;5.82;5.22;;;;;;;;;;5038778;28;20037;-49
2021/12/20 03:50:29;;;;;;;6.05;5.18;;;;;;;;;;5038950;28;20033;-47
2021/12/20 03:52:54;;;;;;;6.75;5.03;;;;;;;;;;5040081;28;20026;-51
2021/12/20 03:55:20;;;;;;;8.15;5.40;;;;;;;;;;5036469;28;20076;-47
2021/12/20 03:57:45;;;;;;;7.95;5.40;;;;;;;;;;5038414;28;20517;-47
2021/12/20 04:00:13;;;;;;;7.18;5.93;;;;;;;;;;5037263;28;20112;-48
2021/12/20 04:02:43;;;;;;;4.43;4.03;;;;;;;;;;5033167;28;20017;-47
2021/12/20 04:05:09;;;;;;;7.95;5.70;;;;;;;;;;5038713;28;20048;-50
2021/12/20 04:07:35;;;;;;;7.32;4.93;;;;;;;;;;5036163;28;20444;-47
2021/12/20 04:10:02;;;;;;;7.05;4.85;;;;;;;;;;5040611;28;20120;-47
2021/12/20 04:12:28;;;;;;;7.97;6.63;;;;;;;;;;5038901;28;20065;-48
2021/12/20 04:14:53;;;;;;;5.95;5.38;;;;;;;;;;5037087;28;20186;-48
2021/12/20 04:17:18;;;;;;;6.43;5.13;;;;;;;;;;5038513;28;20037;-47
2021/12/20 04:19:44;;;;;;;5.65;4.30;;;;;;;;;;5036298;28;20026;-47
2021/12/20 04:22:09;;;;;;;6.75;5.18;;;;;;;;;;5036435;28;20091;-47
2021/12/20 04:24:35;;;;;;;7.63;4.55;;;;;;;;;;5035543;28;20506;-47
2021/12/20 04:27:01;;;;;;;10.13;7.57;;;;;;;;;;5037395;28;20037;-48
2021/12/20 04:29:28;;;;;;;6.90;5.20;;;;;;;;;;5036312;28;20358;-48
2021/12/20 04:31:53;;;;;;;6.22;5.18;;;;;;;;;;5033416;28;20061;-50
2021/12/20 04:34:19;;;;;;;8.18;5.53;;;;;;;;;;5035638;28;20071;-47
2021/12/20 04:36:44;;;;;;;10.63;5.00;;;;;;;;;;5038668;28;20029;-48
2021/12/20 04:39:14;;;;;;;8.60;5.53;;;;;;;;;;5037778;28;20038;-48
2021/12/20 04:41:39;;;;;;;7.78;5.82;;;;;;;;;;5037307;28;20455;-47
2021/12/20 04:44:05;;;;;;;7.20;5.72;;;;;;;;;;5036428;28;20025;-47
2021/12/20 04:46:31;;;;;;;8.25;5.30;;;;;;;;;;5030995;28;20037;-48
2021/12/20 04:48:56;;;;;;;4.70;4.28;;;;;;;;;;5034095;28;20049;-47
2021/12/20 04:51:22;;;;;;;6.50;5.38;;;;;;;;;;5037742;28;20072;-47
2021/12/20 04:53:47;;;;;;;9.57;5.53;;;;;;;;;;5037353;28;20136;-48
2021/12/20 04:56:13;;;;;;;5.68;4.38;;;;;;;;;;5036594;28;20067;-48
2021/12/20 04:58:38;;;;;;;5.15;4.47;;;;;;;;;;5033803;28;20033;-48
2021/12/20 05:01:04;;;;;;;5.57;5.00;;;;;;;;;;5035327;28;20033;-51
2021/12/20 05:03:29;;;;;;;5.03;4.53;;;;;;;;;;5037577;28;20078;-50
2021/12/20 05:05:54;;;;;;;9.02;6.68;;;;;;;;;;5034011;28;20033;-50
2021/12/20 05:08:20;;;;;;;9.18;5.63;;;;;;;;;;5039359;28;20029;-49
2021/12/20 05:10:45;;;;;;;7.28;5.55;;;;;;;;;;5037385;28;20064;-49
2021/12/20 05:13:13;;;;;;;6.30;5.20;;;;;;;;;;5036062;28;20413;-50
2021/12/20 05:15:39;;;;;;;8.32;5.18;;;;;;;;;;5033464;28;20043;-49
2021/12/20 05:18:06;;;;;;;4.50;3.75;;;;;;;;;;5033108;28;20048;-48
2021/12/20 05:20:33;;;;;;;5.18;4.68;;;;;;;;;;5019627;28;20033;-49
2021/12/20 05:22:59;;;;;;;6.53;4.72;;;;;;;;;;5038107;28;20177;-50
2021/12/20 05:25:26;;;;;;;5.25;3.97;;;;;;;;;;5035251;28;20518;-51
2021/12/20 05:27:52;;;;;;;3.80;3.33;;;;;;;;;;5039176;28;20036;-49
2021/12/20 05:30:18;;;;;;;3.28;2.97;;;;;;;;;;5036014;28;20037;-51
2021/12/20 05:32:44;;;;;;;9.23;3.08;;;;;;;;;;5035935;28;20029;-49
2021/12/20 05:35:11;;;;;;;6.60;3.55;;;;;;;;;;5035839;28;20039;-50
2021/12/20 05:37:37;;;;;;;3.10;2.78;;;;;;;;;;5037424;28;20053;-49
2021/12/20 05:40:08;;;;;;;3.70;3.03;;;;;;;;;;5036793;28;20084;-50
2021/12/20 05:42:34;;;;;;;5.60;3.00;;;;;;;;;;5036163;28;20466;-49
2021/12/20 05:44:59;;;;;;;6.00;2.97;;;;;;;;;;5032883;28;20265;-48
2021/12/20 05:47:25;;;;;;;4.20;3.38;;;;;;;;;;5034824;28;20029;-49
2021/12/20 05:49:50;;;;;;;2.78;2.30;;;;;;;;;;5037357;28;20041;-51
2021/12/20 05:52:16;;;;;;;6.95;3.08;;;;;;;;;;5034075;28;21000;-48
2021/12/20 05:54:42;;;;;;;5.22;3.63;;;;;;;;;;5034823;28;20116;-48
2021/12/20 05:57:07;;;;;;;8.95;3.35;;;;;;;;;;5038968;28;20041;-50
2021/12/20 05:59:33;;;;;;;5.00;3.92;;;;;;;;;;5034393;28;20025;-49
2021/12/20 06:01:59;;;;;;;5.80;2.95;;;;;;;;;;5035055;28;20486;-49
2021/12/20 06:04:24;;;;;;;2.80;2.50;;;;;;;;;;5037090;28;20409;-48
2021/12/20 06:06:49;;;;;;;4.18;3.03;;;;;;;;;;5028891;28;20183;-47
2021/12/20 06:09:15;;;;;;;3.63;3.13;;;;;;;;;;5036916;28;20044;-48
2021/12/20 06:11:40;;;;;;;3.58;3.17;;;;;;;;;;5035728;28;20186;-47
2021/12/20 06:14:05;;;;;;;4.50;3.40;;;;;;;;;;5034481;28;20363;-49
2021/12/20 06:16:31;;;;;;;3.47;2.92;;;;;;;;;;5033379;28;20049;-49
2021/12/20 06:18:56;;;;;;;3.53;2.88;;;;;;;;;;5033872;28;20024;-49
2021/12/20 06:21:23;;;;;;;3.03;2.65;;;;;;;;;;5035113;28;20087;-49
2021/12/20 06:23:48;;;;;;;2.72;2.25;;;;;;;;;;5033747;28;20395;-48
2021/12/20 06:26:14;;;;;;;2.88;2.33;;;;;;;;;;5034647;28;20034;-48
2021/12/20 06:28:39;;;;;;;6.53;3.90;;;;;;;;;;5036660;28;20029;-49
2021/12/20 06:31:05;;;;;;;6.00;2.95;;;;;;;;;;5037319;28;20045;-49
2021/12/20 06:33:30;;;;;;;3.20;2.70;;;;;;;;;;5033099;28;20057;-51
2021/12/20 06:35:56;;;;;;;3.05;2.58;;;;;;;;;;5038850;28;20040;-49
2021/12/20 06:38:22;;;;;;;2.90;2.50;;;;;;;;;;5041703;28;20021;-52
2021/12/20 06:40:52;;;;;;;4.25;3.10;;;;;;;;;;5041054;28;20041;-52
2021/12/20 06:43:19;;;;;;;3.03;2.60;;;;;;;;;;5037551;28;20029;-49
2021/12/20 06:45:45;;;;;;;4.90;3.65;;;;;;;;;;5037321;28;20374;-49
2021/12/20 06:48:11;;;;;;;6.45;3.45;;;;;;;;;;5037480;28;20033;-50
2021/12/20 06:50:36;;;;;;;17.80;3.95;;;;;;;;;;5037646;28;20397;-48
2021/12/20 06:53:03;;;;;;;10.48;2.55;;;;;;;;;;5039710;28;20106;-49
2021/12/20 06:55:28;;;;;;;3.95;3.22;;;;;;;;;;5037582;28;20116;-49
2021/12/20 06:57:54;;;;;;;4.57;3.05;;;;;;;;;;5037856;28;20110;-47
2021/12/20 07:00:19;;;;;;;5.50;3.45;;;;;;;;;;5037888;28;20037;-49
2021/12/20 07:02:45;;;;;;;2.95;2.60;;;;;;;;;;5038633;28;20037;-47
2021/12/20 07:05:10;;;;;;;2.95;2.42;;;;;;;;;;5037848;28;20107;-48
2021/12/20 07:07:36;;;;;;;4.45;2.88;;;;;;;;;;5038170;28;20025;-52
2021/12/20 07:10:03;;;;;;;20.00;3.58;;;;;;;;;;5040987;28;20475;-49
2021/12/20 07:12:29;;;;;;;3.63;2.72;;;;;;;;;;5039270;28;20476;-49
2021/12/20 07:14:54;;;;;;;13.07;4.55;;;;;;;;;;5039127;28;20033;-50
2021/12/20 07:17:20;;;;;;;3.22;2.92;;;;;;;;;;5039511;28;20139;-49
2021/12/20 07:19:46;;;;;;;8.05;3.75;;;;;;;;;;5039325;28;20379;-53
2021/12/20 07:22:11;;;;;;;5.85;3.00;;;;;;;;;;5036236;28;20091;-48
2021/12/20 07:24:37;;;;;;;3.33;2.63;;;;;;;;;;5038169;28;20443;-48
2021/12/20 07:27:03;;;;;;;3.22;2.75;;;;;;;;;;5032549;28;20047;-54
2021/12/20 07:29:28;;;;;;;7.25;4.03;;;;;;;;;;5038117;28;20105;-51
2021/12/20 07:31:54;;;;;;;3.15;2.67;;;;;;;;;;5033843;28;20035;-53
2021/12/20 07:34:19;;;;;;;3.20;2.85;;;;;;;;;;5038669;28;20448;-52
2021/12/20 07:36:44;;;;;;;2.70;2.30;;;;;;;;;;5037759;28;20046;-51
2021/12/20 07:39:10;;;;;;;3.40;2.63;;;;;;;;;;5035975;28;20029;-50
2021/12/20 07:41:35;;;;;;;6.10;3.78;;;;;;;;;;5041119;28;20044;-48
2021/12/20 07:44:01;;;;;;;3.17;2.72;;;;;;;;;;5038037;28;20426;-48
2021/12/20 07:46:27;;;;;;;4.07;2.45;;;;;;;;;;5036663;28;20554;-49
2021/12/20 07:48:52;;;;;;;3.55;2.78;;;;;;;;;;5038706;28;20116;-50
2021/12/20 07:51:18;;;;;;;3.25;2.95;;;;;;;;;;5037420;28;20029;-50
2021/12/20 07:53:44;;;;;;;2.88;2.45;;;;;;;;;;5035693;28;20120;-49
2021/12/20 07:56:09;;;;;;;3.00;2.47;;;;;;;;;;5038698;28;20025;-50
2021/12/20 07:58:35;;;;;;;8.07;3.75;;;;;;;;;;5034421;28;20034;-49
2021/12/20 08:01:01;;;;;;;6.13;2.65;;;;;;;;;;5035570;28;20041;-52
2021/12/20 08:03:28;;;;;;;3.65;3.03;;;;;;;;;;5035976;28;20156;-48
2021/12/20 08:05:54;;;;;;;6.13;3.88;;;;;;;;;;5036318;28;20032;-49
2021/12/20 08:08:19;;;;;;;4.93;3.50;;;;;;;;;;5037378;28;20041;-50
2021/12/20 08:10:45;;;;;;;3.20;2.28;;;;;;;;;;5041104;28;20033;-49
2021/12/20 08:13:12;;;;;;;3.78;3.35;;;;;;;;;;5039962;28;20037;-48
2021/12/20 08:15:38;;;;;;;6.18;2.63;;;;;;;;;;5069578;28;20041;-49
2021/12/20 08:18:06;;;;;;;3.28;2.28;;;;;;;;;;5035126;28;20021;-53
2021/12/20 08:20:32;;;;;;;2.95;2.45;;;;;;;;;;5034161;28;20550;-50
2021/12/20 08:22:57;;;;;;;5.63;2.80;;;;;;;;;;5034783;28;20088;-49
2021/12/20 08:26:20;;;;;;;;;;;;;;;;;;;;;
2021/12/20 08:29:58;;;;;;;5.32;3.53;;;;;;;;;;4955006;28;20030;-51
2021/12/20 09:12:59;;;;;;;9.07;3.28;;;;;;;;;;4922732;29;20613;-54
2021/12/20 09:17:25;;;;;;;;;;;;;;;;;;;;;
2021/12/20 09:25:25;;;;;;;;;;;;;;;;;;;;;
2021/12/20 09:28:17;;;;;;;4.35;3.45;;;;;;;;;;4845237;29;20124;-54
2021/12/20 09:39:52;;;;;;;;;;;;;;;;;;;;;
2021/12/20 09:43:48;;;;;;;8.10;4.07;;;;;;;;;;4848148;29;20443;-48
2021/12/20 09:51:33;;;;;;;2.65;2.05;;;;;;;;;;4926649;29;20031;-52
2021/12/20 10:07:09;;;;;;;3.70;2.85;;;;;;;;;;4863543;29;20367;-48
2021/12/20 10:41:24;;;;;;;3.30;2.97;;;;;;;;;;4778323;29;20047;-48
2021/12/20 10:49:05;;;;;;;;;;;;;;;;;;;;;
2021/12/20 11:16:29;;;;;;;;;;;;;;;;;;;;;
2021/12/20 11:28:09;;;;;;;;;;;;;;;;;;;;;
2021/12/20 11:31:37;;;;;;;6.20;2.78;;;;;;;;;;4854323;29;20447;-53
2021/12/20 11:58:51;;;;;;;5.38;2.53;;;;;;;;;;4840925;29;20058;-50
2021/12/20 12:13:45;;;;;;;2.92;2.63;;;;;;;;;;4977452;28;20042;-48
2021/12/20 12:17:48;;;;;;;;;;;;;;;;;;;;;
2021/12/20 12:21:11;;;;;;;;;;;;;;;;;;;;;
2021/12/20 12:47:56;;;;;;;;;;;;;;;;;;;;;
2021/12/20 13:57:34;;;;;;;4.82;3.40;;;;;;;;;;4982433;28;20120;-49
2021/12/20 14:01:23;;;;;;;2.60;2.10;;;;;;;;;;4909282;29;20047;-52
2021/12/20 14:09:19;;;;;;;;;;;;;;;;;;;;;
2021/12/20 14:16:42;;;;;;;2.70;2.20;;;;;;;;;;4863103;29;20592;-47
2021/12/20 14:23:58;;;;;;;3.47;2.50;;;;;;;;;;4823085;29;20440;-51
2021/12/20 14:39:13;;;;;;;2.55;1.95;;;;;;;;;;4898838;29;20109;-50
2021/12/20 15:26:36;;;;;;;;;;;;;;;;;;;;;
2021/12/20 15:30:06;;;;;;;;;;;;;;;;;;;;;
2021/12/20 16:04:17;;;;;;;;;;;;;;;;;;;;;
2021/12/20 16:07:31;;;;;;;;;;;;;;;;;;4931037;29;19919;-48
2021/12/20 16:15:23;;;;;;;;;;;;;;;;;;;;;
2021/12/20 16:26:39;;;;;;;;;;;;;;;;;;;;;
2021/12/20 16:53:53;;;;;;;4.07;2.97;;;;;;;;;;4921678;29;20418;-49
2021/12/20 16:57:31;;;;;;;3.30;3.00;;;;;;;;;;4970153;28;20065;-48
2021/12/20 17:01:10;;;;;;;3.05;2.65;;;;;;;;;;4958380;28;20074;-48
2021/12/20 17:08:35;;;;;;;3.78;2.45;;;;;;;;;;4928990;29;20046;-49
2021/12/20 17:22:23;;;;;;;3.58;3.08;;;;;;;;;;4862077;29;20063;-49
2021/12/20 17:24:49;;;;;;;4.10;3.10;;;;;;;;;;4920340;28;20040;-48
2021/12/20 17:27:15;;;;;;;6.15;3.35;;;;;;;;;;5003463;28;20038;-47
2021/12/20 17:29:41;;;;;;;8.85;4.55;;;;;;;;;;5011679;28;20042;-48
2021/12/20 17:32:07;;;;;;;5.72;3.38;;;;;;;;;;5005634;28;20044;-48
2021/12/20 17:34:32;;;;;;;5.80;3.67;;;;;;;;;;5003912;28;20459;-50
2021/12/20 17:36:58;;;;;;;10.95;4.05;;;;;;;;;;5007606;28;20030;-50
2021/12/20 17:39:23;;;;;;;3.88;3.22;;;;;;;;;;5003740;28;20034;-48
2021/12/20 17:41:49;;;;;;;3.85;3.38;;;;;;;;;;5004339;28;20088;-48
2021/12/20 17:44:14;;;;;;;3.50;2.90;;;;;;;;;;5003593;28;20078;-50
2021/12/20 17:46:40;;;;;;;4.25;3.85;;;;;;;;;;4999024;28;20461;-51
2021/12/20 17:49:05;;;;;;;3.08;2.33;;;;;;;;;;5004347;28;20405;-48
2021/12/20 17:51:30;;;;;;;3.63;3.20;;;;;;;;;;4997728;28;20037;-51
2021/12/20 17:53:57;;;;;;;10.43;3.17;;;;;;;;;;5004248;28;20041;-49
2021/12/20 17:56:23;;;;;;;4.07;3.42;;;;;;;;;;5008465;28;20060;-48
2021/12/20 17:58:49;;;;;;;5.70;4.13;;;;;;;;;;5008587;28;20134;-49
2021/12/20 18:01:16;;;;;;;4.95;3.60;;;;;;;;;;5006834;28;20121;-48
2021/12/20 18:03:41;;;;;;;7.60;4.50;;;;;;;;;;5004429;28;20506;-51
2021/12/20 18:06:07;;;;;;;4.03;3.20;;;;;;;;;;5006438;28;20034;-49
2021/12/20 18:08:33;;;;;;;3.95;3.35;;;;;;;;;;5005669;28;20070;-52
2021/12/20 18:10:58;;;;;;;5.07;4.03;;;;;;;;;;5005338;28;20049;-49
2021/12/20 18:13:24;;;;;;;10.45;3.42;;;;;;;;;;5005750;28;20026;-49
2021/12/20 18:15:49;;;;;;;5.03;4.35;;;;;;;;;;5001896;28;20061;-47
2021/12/20 18:18:14;;;;;;;5.20;3.90;;;;;;;;;;5001950;28;20467;-52
2021/12/20 18:20:40;;;;;;;14.13;3.75;;;;;;;;;;4997850;28;21012;-50
2021/12/20 18:23:05;;;;;;;4.80;3.70;;;;;;;;;;5001883;28;20038;-50
2021/12/20 18:25:33;;;;;;;3.85;3.20;;;;;;;;;;5001081;28;20022;-48
2021/12/20 18:28:00;;;;;;;9.30;4.20;;;;;;;;;;5005369;28;20030;-50
2021/12/20 18:30:26;;;;;;;5.60;4.13;;;;;;;;;;5002246;28;20108;-49
2021/12/20 18:32:52;;;;;;;3.72;3.33;;;;;;;;;;5003343;28;20030;-47
2021/12/20 18:35:18;;;;;;;5.88;4.43;;;;;;;;;;5005598;28;20033;-51
2021/12/20 18:37:43;;;;;;;5.80;3.80;;;;;;;;;;4996323;28;20041;-51
2021/12/20 18:40:10;;;;;;;6.93;3.92;;;;;;;;;;4993799;28;20046;-51
2021/12/20 18:42:36;;;;;;;7.85;3.70;;;;;;;;;;5007465;28;20444;-50
2021/12/20 18:45:06;;;;;;;4.88;4.40;;;;;;;;;;4996518;28;20088;-49
2021/12/20 18:47:32;;;;;;;3.93;3.53;;;;;;;;;;5003806;28;20034;-49
2021/12/20 18:49:58;;;;;;;4.50;3.33;;;;;;;;;;4998176;28;20279;-48
2021/12/20 18:52:23;;;;;;;4.22;3.55;;;;;;;;;;5005832;28;20483;-48
2021/12/20 18:54:49;;;;;;;5.63;3.55;;;;;;;;;;5002783;28;20045;-50
2021/12/20 18:57:14;;;;;;;6.03;4.63;;;;;;;;;;4999662;28;20061;-55
2021/12/20 18:59:40;;;;;;;5.65;4.05;;;;;;;;;;4999457;28;20696;-51
2021/12/20 19:02:06;;;;;;;3.95;3.55;;;;;;;;;;5000432;28;20424;-50
2021/12/20 19:04:32;;;;;;;5.93;5.05;;;;;;;;;;5003671;28;20125;-50
2021/12/20 19:07:00;;;;;;;8.93;5.18;;;;;;;;;;4968843;28;1091928;-47
2021/12/20 19:09:27;;;;;;;6.70;4.05;;;;;;;;;;5006420;28;20124;-48
2021/12/20 19:11:54;;;;;;;9.70;4.15;;;;;;;;;;5004085;28;20049;-48
2021/12/20 19:14:28;;;;;;;8.73;5.38;;;;;;;;;;5008322;28;20037;-50
2021/12/20 19:16:59;;;;;;;3.78;3.38;;;;;;;;;;5003577;28;20521;-50
2021/12/20 19:19:26;;;;;;;;;;;;;;;;;;5006212;28;20409;-48
2021/12/20 19:21:52;;;;;;;3.53;3.15;;;;;;;;;;5006036;28;20004;-49
2021/12/20 19:24:17;;;;;;;4.25;3.60;;;;;;;;;;5002246;28;20493;-48
2021/12/20 19:26:44;;;;;;;7.85;4.10;;;;;;;;;;5002608;28;20046;-50
2021/12/20 19:29:16;;;;;;;5.70;3.85;;;;;;;;;;5004838;28;20025;-51
2021/12/20 19:31:45;;;;;;;6.78;4.97;;;;;;;;;;5002779;28;20037;-50
2021/12/20 19:34:12;;;;;;;8.55;5.15;;;;;;;;;;5013819;28;20546;-50
2021/12/20 19:36:38;;;;;;;7.45;4.53;;;;;;;;;;5007406;28;20475;-47
2021/12/20 19:39:09;;;;;;;12.82;5.15;;;;;;;;;;5007904;28;20029;-50
2021/12/20 19:41:35;;;;;;;;;;;;;;;;;;5007734;28;20034;-50
2021/12/20 19:44:00;;;;;;;5.07;3.88;;;;;;;;;;5007682;28;19975;-47
2021/12/20 19:46:26;;;;;;;5.10;4.07;;;;;;;;;;5014541;28;20122;-48
2021/12/20 19:48:51;;;;;;;5.22;4.40;;;;;;;;;;5010382;28;20045;-49
2021/12/20 19:51:17;;;;;;;4.13;3.72;;;;;;;;;;4997325;28;20066;-46
2021/12/20 19:53:42;;;;;;;6.78;4.13;;;;;;;;;;5011671;28;20041;-53
2021/12/20 19:56:08;;;;;;;10.57;5.03;;;;;;;;;;5009131;28;20436;-53
2021/12/20 19:58:33;;;;;;;8.63;5.88;;;;;;;;;;5005781;28;20034;-49
2021/12/20 20:00:59;;;;;;;4.47;3.90;;;;;;;;;;5008119;28;20038;-50
2021/12/20 20:03:24;;;;;;;5.63;4.55;;;;;;;;;;5008781;28;20026;-49
2021/12/20 20:05:50;;;;;;;4.85;4.22;;;;;;;;;;5010332;28;20447;-49
2021/12/20 20:08:16;;;;;;;5.13;4.25;;;;;;;;;;5004829;28;20109;-49
2021/12/20 20:10:41;;;;;;;4.78;3.92;;;;;;;;;;5005015;28;20068;-48
2021/12/20 20:13:07;;;;;;;4.50;3.75;;;;;;;;;;5000709;28;20445;-48
2021/12/20 20:15:34;;;;;;;5.40;4.03;;;;;;;;;;5002854;28;20049;-49
2021/12/20 20:18:00;;;;;;;5.03;3.45;;;;;;;;;;5009949;28;20341;-45
2021/12/20 20:20:26;;;;;;;5.75;3.95;;;;;;;;;;5009409;28;20109;-47
2021/12/20 20:22:53;;;;;;;8.27;4.65;;;;;;;;;;5008918;28;20033;-49
2021/12/20 20:25:20;;;;;;;4.97;3.38;;;;;;;;;;5007688;28;20465;-47
2021/12/20 20:27:46;;;;;;;3.50;3.03;;;;;;;;;;5007795;28;20456;-48
2021/12/20 20:30:11;;;;;;;4.97;2.33;;;;;;;;;;5004538;28;20118;-48
2021/12/20 20:32:37;;;;;;;4.28;3.10;;;;;;;;;;5007248;28;20034;-47
2021/12/20 20:35:04;;;;;;;4.38;3.28;;;;;;;;;;5011003;28;20148;-48
2021/12/20 20:37:30;;;;;;;3.42;2.72;;;;;;;;;;5005758;28;20173;-50
2021/12/20 20:40:00;;;;;;;8.85;3.75;;;;;;;;;;5004547;28;20459;-48
2021/12/20 20:42:27;;;;;;;4.57;2.80;;;;;;;;;;5007945;28;20364;-49
2021/12/20 20:44:52;;;;;;;4.57;3.78;;;;;;;;;;5005024;28;20114;-49
2021/12/20 20:47:19;;;;;;;4.75;3.33;;;;;;;;;;5003353;28;20089;-52
2021/12/20 20:49:44;;;;;;;6.13;2.95;;;;;;;;;;5004664;28;20030;-50
2021/12/20 20:52:10;;;;;;;3.05;2.45;;;;;;;;;;5002373;28;20041;-49
2021/12/20 20:54:36;;;;;;;8.05;2.92;;;;;;;;;;5007703;28;20030;-53
2021/12/20 20:57:02;;;;;;;3.35;2.53;;;;;;;;;;5015112;28;20034;-51
2021/12/20 20:59:27;;;;;;;4.63;2.78;;;;;;;;;;5004207;28;20040;-47
2021/12/20 21:01:53;;;;;;;3.72;2.55;;;;;;;;;;5008530;28;20037;-49
2021/12/20 21:04:23;;;;;;;6.10;2.50;;;;;;;;;;5009346;28;20525;-48
2021/12/20 21:06:53;;;;;;;2.90;2.40;;;;;;;;;;5009844;28;20045;-49
2021/12/20 21:09:18;;;;;;;4.25;3.72;;;;;;;;;;5008271;28;20072;-51
2021/12/20 21:11:50;;;;;;;2.55;1.95;;;;;;;;;;5011778;28;20115;-47
2021/12/20 21:14:16;;;;;;;3.95;2.70;;;;;;;;;;5011629;28;20057;-50
2021/12/20 21:16:44;;;;;;;3.08;2.20;;;;;;;;;;5004710;28;20479;-47
2021/12/20 21:19:11;;;;;;;2.80;2.28;;;;;;;;;;5007749;28;20034;-50
2021/12/20 21:21:37;;;;;;;2.83;2.42;;;;;;;;;;5006406;28;20113;-49
2021/12/20 21:24:03;;;;;;;3.60;2.35;;;;;;;;;;5002730;28;20121;-47
2021/12/20 21:26:29;;;;;;;2.63;2.05;;;;;;;;;;5002432;28;20419;-50
2021/12/20 21:28:55;;;;;;;3.15;2.30;;;;;;;;;;5003515;28;20101;-51
2021/12/20 21:31:21;;;;;;;2.75;2.35;;;;;;;;;;5008466;28;20074;-51
2021/12/20 21:33:47;;;;;;;3.90;2.65;;;;;;;;;;5003239;28;20116;-48
2021/12/20 21:36:12;;;;;;;3.35;2.35;;;;;;;;;;5008502;28;20048;-47
2021/12/20 21:38:38;;;;;;;2.92;2.33;;;;;;;;;;5008147;28;20041;-46
2021/12/20 21:41:04;;;;;;;5.65;2.90;;;;;;;;;;5000809;28;20452;-50
2021/12/20 21:43:29;;;;;;;3.35;2.45;;;;;;;;;;5010396;28;20034;-47
2021/12/20 21:45:57;;;;;;;3.60;3.05;;;;;;;;;;5004817;28;20416;-49
2021/12/20 21:48:23;;;;;;;19.00;3.80;;;;;;;;;;5011532;28;20340;-47
2021/12/20 21:50:48;;;;;;;4.00;2.97;;;;;;;;;;5011488;28;20035;-47
2021/12/20 21:53:14;;;;;;;16.98;4.57;;;;;;;;;;5008451;28;20037;-47
2021/12/20 21:55:39;;;;;;;4.10;3.00;;;;;;;;;;4998663;28;20491;-51
2021/12/20 21:58:04;;;;;;;4.82;2.45;;;;;;;;;;5006823;28;20128;-49
2021/12/20 22:00:31;;;;;;;4.70;3.03;;;;;;;;;;5008953;28;20038;-50
2021/12/20 22:02:57;;;;;;;7.57;3.03;;;;;;;;;;5003051;28;20440;-49
2021/12/20 22:05:22;;;;;;;7.55;3.15;;;;;;;;;;5001990;28;20404;-51
2021/12/20 22:07:48;;;;;;;3.50;3.08;;;;;;;;;;5012442;28;20029;-49
2021/12/20 22:10:13;;;;;;;3.42;2.88;;;;;;;;;;5005551;28;20042;-50
2021/12/20 22:12:39;;;;;;;3.80;2.25;;;;;;;;;;5000511;28;20415;-52
2021/12/20 22:15:05;;;;;;;2.83;2.42;;;;;;;;;;5004579;28;20037;-53
2021/12/20 22:17:31;;;;;;;3.10;2.42;;;;;;;;;;5006331;28;20040;-49
2021/12/20 22:19:57;;;;;;;4.22;3.33;;;;;;;;;;5005677;28;20034;-50
2021/12/20 22:22:24;;;;;;;6.35;3.42;;;;;;;;;;5004518;28;20037;-49
2021/12/20 22:24:49;;;;;;;4.75;3.83;;;;;;;;;;5002603;28;21643;-52
2021/12/20 22:27:14;;;;;;;6.95;3.53;;;;;;;;;;5007971;28;20044;-49
2021/12/20 22:29:40;;;;;;;2.80;2.28;;;;;;;;;;5003548;28;20037;-50
2021/12/20 22:32:06;;;;;;;4.00;2.97;;;;;;;;;;5004573;28;20053;-47